EIKN

Ireland West Knock Airport

Charleston, Ireland
TAF EIKN 201700Z 2018/2118 27009KT 9999 FEW018 BKN027 BECMG 2018/2021 23006KT BECMG 2021/2024 18005KT BECMG 2100/2103 3000 BR SCT005 TEMPO 2103/2108 0300 FG BKN001 BECMG 2102/2105 15005KT BECMG 2108/2110 18010KT 9999 NSW FEW010 BKN025 BECMG 2114/2117 21010KT
Issued Valid From Valid To
Apr-20 @ 17:00 UTC
(2 hours ago)
Apr-20 @ 18:00 UTC
(40 minutes ago)
Apr-21 @ 18:00 UTC
(in 23 hours)
Apr-20 @ 18:00 to Apr-21 @ 18:00
TAF EIKN 201700Z 2018/2118 27009KT 9999 FEW018 BKN027
Wind Visibility Clouds
270° at 9 knots 10,000+ meters
  • Few at 1,800' AGL
  • Broken at 2,700' AGL
Becoming Apr-20 @ 18:00 to Apr-20 @ 21:00
BECMG 2018/2021 23006KT
Wind Visibility Clouds
230° at 6 knots 10,000+ meters
  • Few at 1,800' AGL
  • Broken at 2,700' AGL
Becoming Apr-20 @ 21:00 to Apr-21 @ 00:00
BECMG 2021/2024 18005KT
Wind Visibility Clouds
180° at 5 knots 10,000+ meters
  • Few at 1,800' AGL
  • Broken at 2,700' AGL
Becoming Apr-21 @ 00:00 to Apr-21 @ 02:00
BECMG 2100/2103 3000 BR SCT005
Wind Visibility Clouds Conditions
180° at 5 knots 2,993 meters
  • Scattered at 500' AGL
  • Mist
Becoming Apr-21 @ 02:00 to Apr-21 @ 08:00
BECMG 2102/2105 15005KT
Wind Visibility Clouds Conditions
150° at 5 knots 2,993 meters
  • Scattered at 500' AGL
  • Mist
Temporary Apr-21 @ 03:00 to Apr-21 @ 08:00
TEMPO 2103/2108 0300 FG BKN001
Visibility Clouds Conditions
306 meters
  • Broken at 100' AGL
  • Fog
Becoming Apr-21 @ 08:00 to Apr-21 @ 14:00
BECMG 2108/2110 18010KT 9999 NSW FEW010 BKN025
Wind Visibility Clouds Conditions
180° at 10 knots 10,000+ meters
  • Few at 1,000' AGL
  • Broken at 2,500' AGL
Becoming Apr-21 @ 14:00 to Apr-21 @ 18:00
BECMG 2114/2117 21010KT
Wind Visibility Clouds Conditions
210° at 10 knots 10,000+ meters
  • Few at 1,000' AGL
  • Broken at 2,500' AGL
TAF EIKN 201700Z 2018/2118 27009KT 9999 FEW018 BKN027 BECMG 2018/2021 23006KT BECMG 2021/2024 18005KT BECMG 2100/2103 3000 BR SCT005 TEMPO 2103/2108 0300 FG BKN001 BECMG 2102/2105 15005KT BECMG 2108/2110 18010KT 9999 NSW FEW010 BKN025 BECMG 2114/2117 21010KT
Issued Apr-20 @ 17:00 UTC
(2 hours ago)
Valid From Apr-20 @ 18:00 UTC
(40 minutes ago)
Valid To Apr-21 @ 18:00 UTC
(in 23 hours)
Apr-20 @ 18:00 - Apr-21 @ 18:00
Wind Visibility
270° at 9 knots 10,000+ meters
Clouds
  • Few at 1,800' AGL
  • Broken at 2,700' AGL
Becoming Apr-20 @ 18:00 - Apr-20 @ 21:00
Wind Visibility
230° at 6 knots 10,000+ meters
Clouds
  • Few at 1,800' AGL
  • Broken at 2,700' AGL
Becoming Apr-20 @ 21:00 - Apr-21 @ 00:00
Wind Visibility
180° at 5 knots 10,000+ meters
Clouds
  • Few at 1,800' AGL
  • Broken at 2,700' AGL
Becoming Apr-21 @ 00:00 - Apr-21 @ 02:00
Wind Visibility
180° at 5 knots 2,993 meters
Clouds
  • Scattered at 500' AGL
Conditions
  • Mist
Becoming Apr-21 @ 02:00 - Apr-21 @ 08:00
Wind Visibility
150° at 5 knots 2,993 meters
Clouds
  • Scattered at 500' AGL
Conditions
  • Mist
Temporary Apr-21 @ 03:00 - Apr-21 @ 08:00
Clouds
  • Broken at 100' AGL
Conditions
  • Fog
Becoming Apr-21 @ 08:00 - Apr-21 @ 14:00
Wind Visibility
180° at 10 knots 10,000+ meters
Clouds
  • Few at 1,000' AGL
  • Broken at 2,500' AGL
Conditions
Becoming Apr-21 @ 14:00 - Apr-21 @ 18:00
Wind Visibility
210° at 10 knots 10,000+ meters
Clouds
  • Few at 1,000' AGL
  • Broken at 2,500' AGL
Conditions